createdAt,value
2022-10-17T00:01:11.997Z,3.23
2022-10-17T00:03:41.866Z,3.93
2022-10-17T00:06:12.704Z,3.00
2022-10-17T00:08:42.305Z,2.90
2022-10-17T00:11:15.067Z,3.20
2022-10-17T00:13:45.060Z,3.33
2022-10-17T00:16:14.923Z,2.97
2022-10-17T00:18:43.349Z,3.20
2022-10-17T00:21:17.000Z,2.97
2022-10-17T00:23:45.469Z,3.70
2022-10-17T00:26:15.120Z,3.43
2022-10-17T00:28:47.995Z,3.00
2022-10-17T00:31:18.278Z,3.10
2022-10-17T00:33:47.331Z,3.40
2022-10-17T00:36:19.576Z,3.00
2022-10-17T00:38:51.706Z,2.70
2022-10-17T00:41:23.677Z,2.90
2022-10-17T00:43:56.382Z,2.60
2022-10-17T00:46:29.490Z,3.50
2022-10-17T00:49:00.186Z,2.50
2022-10-17T00:51:35.312Z,3.23
2022-10-17T00:54:04.736Z,3.00
2022-10-17T00:56:33.752Z,3.57
2022-10-17T00:59:03.899Z,3.70
2022-10-17T01:01:33.553Z,3.43
2022-10-17T01:04:01.997Z,3.87
2022-10-17T01:06:30.283Z,3.37
2022-10-17T01:08:58.595Z,3.30
2022-10-17T01:11:39.289Z,2.93
2022-10-17T01:14:18.181Z,3.00
2022-10-17T01:16:53.387Z,3.33
2022-10-17T01:19:51.291Z,3.60
2022-10-17T01:22:28.486Z,3.27
2022-10-17T01:25:22.771Z,3.90
2022-10-17T01:28:02.455Z,3.70
2022-10-17T01:31:00.605Z,4.13
2022-10-17T01:33:39.464Z,3.07
2022-10-17T01:36:12.807Z,3.73
2022-10-17T01:38:48.964Z,3.80
2022-10-17T01:41:26.551Z,4.33
2022-10-17T01:44:01.323Z,3.60
2022-10-17T01:46:34.357Z,4.00
2022-10-17T01:49:05.838Z,5.10
2022-10-17T01:51:39.326Z,3.93
2022-10-17T01:54:13.361Z,3.67
2022-10-17T01:56:44.038Z,3.80
2022-10-17T01:59:16.364Z,4.27
2022-10-17T02:01:52.275Z,3.93
2022-10-17T02:04:20.964Z,3.43
2022-10-17T02:06:49.191Z,4.47
2022-10-17T02:09:23.514Z,3.87
2022-10-17T02:12:18.467Z,4.40
2022-10-17T02:15:02.981Z,3.77
2022-10-17T02:17:43.683Z,3.90
2022-10-17T02:20:21.545Z,3.40
2022-10-17T02:22:57.888Z,3.93
2022-10-17T02:25:37.628Z,3.67
2022-10-17T02:28:18.194Z,3.47
2022-10-17T02:30:52.821Z,3.27
2022-10-17T02:33:27.038Z,3.33
2022-10-17T02:36:02.263Z,3.57
2022-10-17T02:38:32.994Z,3.50
2022-10-17T02:41:03.345Z,3.70
2022-10-17T02:43:32.145Z,4.53
2022-10-17T02:46:01.172Z,4.37
2022-10-17T02:48:38.559Z,3.63
2022-10-17T02:51:14.080Z,4.13
2022-10-17T02:53:50.923Z,3.93
2022-10-17T02:56:21.645Z,3.87
2022-10-17T02:58:53.535Z,3.83
2022-10-17T03:01:23.220Z,3.93
2022-10-17T03:03:53.194Z,3.57
2022-10-17T03:06:21.565Z,3.63
2022-10-17T03:08:49.782Z,3.70
2022-10-17T03:11:19.226Z,3.47
2022-10-17T03:13:47.468Z,3.50
2022-10-17T03:16:16.454Z,3.30
2022-10-17T03:18:47.947Z,3.07
2022-10-17T03:21:19.814Z,4.00
2022-10-17T03:23:48.441Z,3.40
2022-10-17T03:26:17.621Z,3.33
2022-10-17T03:28:47.637Z,3.70
2022-10-17T03:31:18.903Z,3.63
2022-10-17T03:33:48.225Z,3.70
2022-10-17T03:36:20.982Z,4.23
2022-10-17T03:38:49.869Z,3.70
2022-10-17T03:41:18.896Z,3.17
2022-10-17T03:43:47.380Z,3.30
2022-10-17T03:46:15.865Z,3.83
2022-10-17T03:48:44.647Z,4.03
2022-10-17T03:51:13.097Z,4.63
2022-10-17T03:53:56.777Z,3.80
2022-10-17T03:56:26.701Z,3.43
2022-10-17T03:59:02.843Z,3.57
2022-10-17T04:01:40.974Z,3.77
2022-10-17T04:04:13.457Z,4.20
2022-10-17T04:06:41.859Z,3.70
2022-10-17T04:09:13.473Z,4.03
2022-10-17T04:11:49.028Z,3.67
2022-10-17T04:14:18.036Z,3.67
2022-10-17T04:16:46.449Z,3.43
2022-10-17T04:19:19.137Z,4.70
2022-10-17T04:21:48.716Z,4.17
2022-10-17T04:24:18.672Z,4.13
2022-10-17T04:26:52.393Z,3.77
2022-10-17T04:29:23.385Z,3.17
2022-10-17T04:31:53.762Z,2.73
2022-10-17T04:34:44.910Z,3.53
2022-10-17T04:37:13.167Z,3.60
2022-10-17T04:39:42.882Z,3.73
2022-10-17T04:42:11.187Z,3.80
2022-10-17T04:44:39.620Z,4.07
2022-10-17T04:47:09.533Z,4.30
2022-10-17T04:52:15.131Z,4.63
2022-10-17T04:54:52.626Z,4.23
2022-10-17T04:57:22.244Z,4.70
2022-10-17T04:59:58.091Z,4.07
2022-10-17T05:02:39.874Z,4.00
2022-10-17T05:05:08.932Z,4.60
2022-10-17T05:07:40.623Z,4.73
2022-10-17T05:10:15.231Z,4.30
2022-10-17T05:12:48.385Z,4.10
2022-10-17T05:15:18.657Z,4.53
2022-10-17T05:17:47.052Z,4.60
2022-10-17T05:20:15.422Z,5.13
2022-10-17T05:22:43.695Z,5.03
2022-10-17T05:25:14.592Z,5.10
2022-10-17T05:27:42.854Z,4.60
2022-10-17T05:30:11.853Z,5.17
2022-10-17T05:32:41.510Z,4.77
2022-10-17T05:35:10.697Z,4.23
2022-10-17T05:37:40.075Z,4.70
2022-10-17T05:40:09.803Z,4.40
2022-10-17T05:45:11.020Z,4.13
2022-10-17T05:47:39.262Z,4.57
2022-10-17T05:50:08.938Z,4.70
2022-10-17T05:52:54.890Z,4.77
2022-10-17T05:55:24.384Z,4.13
2022-10-17T05:57:54.856Z,3.97
2022-10-17T06:00:29.392Z,5.03
2022-10-17T06:02:59.872Z,4.80
2022-10-17T06:05:28.308Z,4.10
2022-10-17T06:08:01.141Z,4.27
2022-10-17T06:10:34.134Z,4.80
2022-10-17T06:13:03.893Z,5.40
2022-10-17T06:15:32.245Z,4.20
2022-10-17T06:18:04.691Z,4.77
2022-10-17T06:20:33.689Z,3.90
2022-10-17T06:23:03.050Z,3.73
2022-10-17T06:26:00.595Z,4.23
2022-10-17T06:28:32.077Z,4.53
2022-10-17T06:31:00.523Z,4.37
2022-10-17T06:33:28.782Z,4.40
2022-10-17T06:35:58.223Z,5.03
2022-10-17T06:38:27.501Z,4.47
2022-10-17T06:41:05.190Z,5.20
2022-10-17T06:43:35.017Z,4.30
2022-10-17T06:46:21.908Z,4.50
2022-10-17T06:48:57.490Z,4.50
2022-10-17T06:51:41.964Z,4.83
2022-10-17T06:54:13.247Z,4.17
2022-10-17T06:57:00.103Z,4.53
2022-10-17T06:59:48.265Z,4.90
2022-10-17T07:02:23.731Z,4.90
2022-10-17T07:04:53.106Z,4.67
2022-10-17T07:07:21.367Z,4.87
2022-10-17T07:09:49.697Z,5.63
2022-10-17T07:12:19.200Z,5.53
2022-10-17T07:14:50.556Z,4.87
2022-10-17T07:17:19.654Z,4.90
2022-10-17T07:19:48.750Z,5.03
2022-10-17T07:22:18.110Z,5.40
2022-10-17T07:27:28.502Z,4.73
2022-10-17T07:29:58.312Z,4.70
2022-10-17T07:32:35.976Z,4.30
2022-10-17T07:35:05.826Z,4.87
2022-10-17T07:37:34.742Z,4.77
2022-10-17T07:40:03.777Z,5.00
2022-10-17T07:42:32.187Z,4.23
2022-10-17T07:45:01.949Z,4.37
2022-10-17T07:47:35.758Z,4.27
2022-10-17T07:50:05.502Z,4.10
2022-10-17T07:52:33.842Z,4.47
2022-10-17T07:55:02.189Z,4.03
2022-10-17T07:57:30.405Z,4.07
2022-10-17T07:59:58.841Z,4.00
2022-10-17T08:02:29.573Z,3.33
2022-10-17T08:04:58.002Z,3.20
2022-10-17T08:07:29.350Z,3.77
2022-10-17T08:09:58.014Z,3.03
2022-10-17T08:12:26.541Z,3.40
2022-10-17T08:14:55.076Z,3.47
2022-10-17T08:17:23.395Z,3.70
2022-10-17T08:19:53.090Z,2.90
2022-10-17T08:22:21.348Z,3.27
2022-10-17T08:24:49.655Z,3.43
2022-10-17T08:27:23.718Z,2.70
2022-10-17T08:29:54.211Z,3.80
2022-10-17T08:32:25.010Z,4.37
2022-10-17T08:34:55.624Z,4.03
2022-10-17T08:37:24.224Z,4.23
2022-10-17T08:39:52.514Z,5.47
2022-10-17T08:42:42.472Z,4.03
2022-10-17T08:45:19.827Z,4.03
2022-10-17T08:47:52.974Z,5.13
2022-10-17T08:50:30.627Z,5.30
2022-10-17T08:53:03.935Z,4.80
2022-10-17T08:55:39.972Z,4.73
2022-10-17T08:58:16.352Z,5.03
2022-10-17T09:00:51.268Z,4.53
2022-10-17T09:03:42.830Z,4.25
2022-10-17T09:06:20.676Z,3.73
2022-10-17T09:09:01.350Z,4.10
2022-10-17T09:11:53.201Z,4.13
2022-10-17T09:14:41.448Z,3.83
2022-10-17T09:17:22.281Z,4.00
2022-10-17T09:20:01.413Z,3.30
2022-10-17T09:22:39.038Z,3.60
2022-10-17T09:25:13.495Z,3.07
2022-10-17T09:27:45.565Z,3.37
2022-10-17T09:30:45.130Z,3.40
2022-10-17T09:33:28.296Z,3.58
2022-10-17T09:36:07.719Z,3.10
2022-10-17T09:38:43.223Z,3.30
2022-10-17T09:41:43.588Z,3.33
2022-10-17T09:44:20.774Z,3.37
2022-10-17T09:47:00.934Z,2.90
2022-10-17T09:49:34.349Z,3.55
2022-10-17T09:52:04.471Z,4.18
2022-10-17T09:54:44.918Z,3.10
2022-10-17T09:57:14.534Z,3.40
2022-10-17T09:59:44.365Z,3.83
2022-10-17T10:02:24.183Z,3.00
2022-10-17T10:05:06.078Z,3.50
2022-10-17T10:07:38.340Z,3.40
2022-10-17T10:10:27.734Z,3.60
2022-10-17T10:13:20.374Z,2.97
2022-10-17T10:15:50.010Z,3.20
2022-10-17T10:18:33.840Z,2.58
2022-10-17T10:21:11.398Z,2.78
2022-10-17T10:23:41.287Z,3.45
2022-10-17T10:26:24.179Z,3.17
2022-10-17T10:29:02.000Z,3.10
2022-10-17T10:31:33.933Z,3.17
2022-10-17T10:34:04.490Z,3.20
2022-10-17T10:36:49.553Z,3.05
2022-10-17T10:39:30.092Z,3.10
2022-10-17T10:42:00.472Z,2.60
2022-10-17T10:44:31.878Z,2.78
2022-10-17T10:47:15.786Z,2.67
2022-10-17T10:49:44.847Z,3.15
2022-10-17T10:52:20.971Z,2.90
2022-10-17T10:54:57.502Z,2.50
2022-10-17T10:57:32.080Z,2.60
2022-10-17T11:00:07.891Z,2.67
2022-10-17T11:02:42.387Z,2.80
2022-10-17T11:05:17.407Z,2.47
2022-10-17T11:07:53.063Z,3.28
2022-10-17T11:10:29.426Z,2.50
2022-10-17T11:13:05.607Z,2.75
2022-10-17T11:15:40.700Z,2.67
2022-10-17T11:18:13.214Z,2.40
2022-10-17T11:20:52.675Z,3.03
2022-10-17T11:23:25.913Z,3.00
2022-10-17T11:25:55.878Z,2.90
2022-10-17T11:28:26.771Z,2.75
2022-10-17T11:31:04.448Z,2.72
2022-10-17T11:33:43.204Z,3.13
2022-10-17T11:36:12.435Z,3.10
2022-10-17T11:38:46.878Z,2.80
2022-10-17T11:41:20.328Z,3.03
2022-10-17T11:43:56.037Z,2.85
2022-10-17T11:46:25.855Z,2.55
2022-10-17T11:49:02.676Z,2.67
2022-10-17T11:54:30.238Z,2.78
2022-10-17T11:57:14.701Z,2.47
2022-10-17T11:59:58.798Z,2.85
2022-10-17T12:02:39.219Z,3.10
2022-10-17T12:05:25.222Z,2.85
2022-10-17T12:08:00.160Z,2.95
2022-10-17T12:10:53.493Z,2.88
2022-10-17T12:13:51.720Z,2.33
2022-10-17T12:16:45.370Z,2.28
2022-10-17T12:19:33.040Z,2.83
2022-10-17T12:22:05.846Z,3.00
2022-10-17T12:24:42.435Z,2.40
2022-10-17T12:27:25.104Z,2.50
2022-10-17T12:30:01.189Z,3.00
2022-10-17T12:32:46.898Z,2.45
2022-10-17T12:35:23.380Z,2.72
2022-10-17T12:38:28.203Z,2.63
2022-10-17T12:41:04.265Z,2.72
2022-10-17T12:43:46.234Z,2.75
2022-10-17T12:46:34.915Z,3.05
2022-10-17T12:49:20.679Z,3.03
2022-10-17T12:52:18.589Z,1.98
2022-10-17T12:55:00.374Z,2.88
2022-10-17T12:57:40.492Z,2.45
2022-10-17T13:00:18.465Z,2.40
2022-10-17T13:02:47.472Z,2.50
2022-10-17T13:05:28.339Z,2.42
2022-10-17T13:07:58.931Z,2.22
2022-10-17T13:10:30.981Z,1.90
2022-10-17T13:13:07.353Z,2.45
2022-10-17T13:15:37.525Z,2.03
2022-10-17T13:18:06.455Z,2.40
2022-10-17T13:20:36.054Z,1.73
2022-10-17T13:23:04.371Z,2.50
2022-10-17T13:25:35.462Z,2.88
2022-10-17T13:28:14.658Z,2.22
2022-10-17T13:30:49.753Z,1.95
2022-10-17T13:33:30.168Z,1.73
2022-10-17T13:36:01.319Z,2.45
2022-10-17T13:38:35.671Z,1.50
2022-10-17T13:41:34.845Z,2.10
2022-10-17T13:44:08.402Z,2.10
2022-10-17T13:46:39.234Z,2.17
2022-10-17T13:49:16.932Z,2.03
2022-10-17T13:51:49.189Z,2.38
2022-10-17T13:54:40.343Z,2.60
2022-10-17T13:57:19.924Z,2.00
2022-10-17T13:59:50.639Z,1.90
2022-10-17T14:02:22.163Z,1.90
2022-10-17T14:05:18.576Z,1.73
2022-10-17T14:10:44.530Z,1.92
2022-10-17T14:13:25.363Z,1.65
2022-10-17T14:15:55.092Z,2.10
2022-10-17T14:18:26.665Z,1.98
2022-10-17T14:21:32.193Z,2.53
2022-10-17T14:23:45.760Z,2.00
2022-10-17T14:26:16.870Z,2.33
2022-10-17T14:28:47.885Z,1.88
2022-10-17T14:31:31.561Z,2.40
2022-10-17T14:34:01.871Z,2.33
2022-10-17T14:36:37.169Z,2.00
2022-10-17T14:39:14.106Z,2.50
2022-10-17T14:41:45.929Z,2.65
2022-10-17T14:44:22.863Z,2.75
2022-10-17T14:46:56.154Z,2.70
2022-10-17T14:49:29.997Z,2.78
2022-10-17T14:52:28.987Z,2.70
2022-10-17T14:55:00.127Z,4.07
2022-10-17T14:57:36.197Z,3.35
2022-10-17T15:00:05.374Z,4.05
2022-10-17T15:02:33.823Z,2.85
2022-10-17T15:05:02.158Z,3.05
2022-10-17T15:07:30.674Z,1.95
2022-10-17T15:10:00.338Z,2.33
2022-10-17T15:12:28.823Z,2.60
2022-10-17T15:14:57.336Z,2.70
2022-10-17T15:17:27.403Z,2.33
2022-10-17T15:19:56.295Z,2.35
2022-10-17T15:22:25.297Z,2.60
2022-10-17T15:24:53.808Z,2.85
2022-10-17T15:27:24.877Z,2.85
2022-10-17T15:29:53.394Z,2.88
2022-10-17T15:32:21.616Z,2.78
2022-10-17T15:34:50.034Z,3.42
2022-10-17T15:37:22.410Z,2.90
2022-10-17T15:39:53.668Z,4.05
2022-10-17T15:42:27.715Z,3.60
2022-10-17T15:44:56.131Z,3.58
2022-10-17T15:47:28.076Z,2.92
2022-10-17T15:49:56.794Z,2.92
2022-10-17T15:52:25.342Z,3.03
2022-10-17T15:54:53.957Z,2.35
2022-10-17T15:57:27.511Z,2.90
2022-10-17T15:59:58.811Z,3.10
2022-10-17T16:02:27.361Z,2.80
2022-10-17T16:04:55.620Z,3.63
2022-10-17T16:07:23.896Z,3.03
2022-10-17T16:09:52.467Z,2.67
2022-10-17T16:12:31.278Z,3.10
2022-10-17T16:14:59.730Z,3.15
2022-10-17T16:17:28.038Z,3.92
2022-10-17T16:19:56.490Z,2.67
2022-10-17T16:22:32.442Z,2.20
2022-10-17T16:25:07.989Z,2.40
2022-10-17T16:27:38.537Z,2.42
2022-10-17T16:30:09.151Z,2.00
2022-10-17T16:32:38.485Z,2.00
2022-10-17T16:35:07.653Z,2.63
2022-10-17T16:37:36.207Z,2.60
2022-10-17T16:40:05.082Z,2.38
2022-10-17T16:42:33.401Z,2.15
2022-10-17T16:45:03.314Z,2.42
2022-10-17T16:47:32.778Z,2.22
2022-10-17T16:50:00.998Z,2.35
2022-10-17T16:52:29.980Z,2.20
2022-10-17T16:54:58.292Z,2.25
2022-10-17T16:57:26.541Z,2.60
2022-10-17T16:59:54.802Z,2.47
2022-10-17T17:02:24.605Z,2.65
2022-10-17T17:04:52.852Z,2.00
2022-10-17T17:07:22.102Z,2.47
2022-10-17T17:09:50.347Z,1.90
2022-10-17T17:12:18.586Z,2.25
2022-10-17T17:14:46.893Z,2.60
2022-10-17T17:17:24.491Z,2.80
2022-10-17T17:20:05.558Z,1.98
2022-10-17T17:22:34.513Z,2.10
2022-10-17T17:25:02.774Z,2.10
2022-10-17T17:27:31.300Z,2.10
2022-10-17T17:29:59.750Z,2.33
2022-10-17T17:32:27.970Z,2.83
2022-10-17T17:34:56.314Z,2.38
2022-10-17T17:37:26.365Z,2.15
2022-10-17T17:39:54.628Z,3.10
2022-10-17T17:42:22.878Z,2.40
2022-10-17T17:44:52.231Z,2.53
2022-10-17T17:47:20.563Z,2.65
2022-10-17T17:49:48.834Z,2.80
2022-10-17T17:52:17.048Z,2.55
2022-10-17T17:54:47.205Z,2.87
2022-10-17T17:57:15.401Z,2.57
2022-10-17T17:59:44.075Z,2.37
2022-10-17T18:02:12.716Z,2.63
2022-10-17T18:04:40.958Z,2.70
2022-10-17T18:07:09.270Z,2.33
2022-10-17T18:09:37.491Z,2.60
2022-10-17T18:12:07.247Z,2.03
2022-10-17T18:14:35.503Z,2.95
2022-10-17T18:17:03.839Z,3.00
2022-10-17T18:19:32.180Z,2.77
2022-10-17T18:22:00.441Z,3.23
2022-10-17T18:24:28.693Z,2.60
2022-10-17T18:26:59.940Z,3.10
2022-10-17T18:29:31.244Z,3.27
2022-10-17T18:32:00.267Z,2.50
2022-10-17T18:34:28.900Z,2.42
2022-10-17T18:36:58.936Z,2.97
2022-10-17T18:39:27.312Z,3.10
2022-10-17T18:41:55.681Z,2.53
2022-10-17T18:44:24.215Z,2.45
2022-10-17T18:46:53.943Z,2.97
2022-10-17T18:49:23.273Z,2.60
2022-10-17T18:51:51.819Z,2.35
2022-10-17T18:54:22.144Z,2.67
2022-10-17T18:56:51.452Z,3.10
2022-10-17T18:59:20.276Z,2.80
2022-10-17T19:01:49.010Z,2.03
2022-10-17T19:04:18.816Z,3.00
2022-10-17T19:06:47.129Z,2.33
2022-10-17T19:09:16.635Z,2.67
2022-10-17T19:11:45.080Z,2.75
2022-10-17T19:14:14.572Z,2.33
2022-10-17T19:16:44.733Z,2.60
2022-10-17T19:19:14.997Z,2.58
2022-10-17T19:21:45.199Z,2.65
2022-10-17T19:24:15.524Z,2.40
2022-10-17T19:26:45.061Z,2.13
2022-10-17T19:29:15.502Z,3.10
2022-10-17T19:31:44.385Z,2.13
2022-10-17T19:34:13.769Z,2.50
2022-10-17T19:36:43.011Z,2.40
2022-10-17T19:39:14.791Z,2.83
2022-10-17T19:41:43.853Z,2.57
2022-10-17T19:44:12.618Z,2.83
2022-10-17T19:46:41.626Z,2.87
2022-10-17T19:49:09.838Z,2.50
2022-10-17T19:51:38.103Z,2.90
2022-10-17T19:54:06.362Z,2.83
2022-10-17T19:56:38.180Z,2.73
2022-10-17T19:59:07.522Z,2.37
2022-10-17T20:01:39.081Z,2.07
2022-10-17T20:04:07.778Z,2.80
2022-10-17T20:06:36.666Z,2.60
2022-10-17T20:09:05.661Z,2.25
2022-10-17T20:11:35.426Z,2.60
2022-10-17T20:14:03.798Z,2.37
2022-10-17T20:16:34.344Z,2.73
2022-10-17T20:19:05.725Z,2.20
2022-10-17T20:21:36.730Z,2.40
2022-10-17T20:24:06.674Z,2.30
2022-10-17T20:26:38.522Z,2.23
2022-10-17T20:29:11.191Z,2.43
2022-10-17T20:31:41.128Z,2.20
2022-10-17T20:34:12.689Z,2.50
2022-10-17T20:36:41.287Z,2.57
2022-10-17T20:39:11.845Z,2.40
2022-10-17T20:41:41.643Z,2.50
2022-10-17T20:44:10.274Z,1.90
2022-10-17T20:46:45.258Z,2.60
2022-10-17T20:49:18.482Z,2.80
2022-10-17T20:51:47.020Z,2.20
2022-10-17T20:54:15.464Z,2.20
2022-10-17T20:56:46.275Z,2.63
2022-10-17T20:59:16.288Z,2.43
2022-10-17T21:01:45.874Z,2.57
2022-10-17T21:04:44.804Z,2.43
2022-10-17T21:07:03.395Z,2.10
2022-10-17T21:09:31.601Z,2.10
2022-10-17T21:14:36.483Z,2.60
2022-10-17T21:17:05.626Z,2.67
2022-10-17T21:19:34.051Z,2.70
2022-10-17T21:22:02.441Z,2.30
2022-10-17T21:24:31.764Z,2.80
2022-10-17T21:27:01.540Z,2.20
2022-10-17T21:29:29.864Z,2.63
2022-10-17T21:31:58.523Z,2.57
2022-10-17T21:34:27.874Z,2.30
2022-10-17T21:36:56.390Z,2.93
2022-10-17T21:39:25.262Z,1.90
2022-10-17T21:41:54.347Z,2.40
2022-10-17T21:44:26.422Z,2.50
2022-10-17T21:46:56.127Z,2.27
2022-10-17T21:49:26.161Z,2.33
2022-10-17T21:51:54.963Z,2.87
2022-10-17T21:54:24.249Z,2.40
2022-10-17T21:56:52.975Z,2.40
2022-10-17T21:59:21.329Z,2.83
2022-10-17T22:01:51.043Z,2.60
2022-10-17T22:04:20.753Z,2.90
2022-10-17T22:06:52.446Z,2.80
2022-10-17T22:09:23.447Z,2.90
2022-10-17T22:11:54.523Z,2.43
2022-10-17T22:14:24.610Z,3.30
2022-10-17T22:16:54.719Z,2.90
2022-10-17T22:19:25.157Z,3.13
2022-10-17T22:21:53.960Z,2.83
2022-10-17T22:24:23.629Z,2.83
2022-10-17T22:26:52.555Z,2.50
2022-10-17T22:29:21.058Z,2.40
2022-10-17T22:31:49.323Z,2.70
2022-10-17T22:34:19.718Z,2.80
2022-10-17T22:36:49.140Z,2.77
2022-10-17T22:39:17.602Z,2.83
2022-10-17T22:41:45.977Z,2.63
2022-10-17T22:44:14.266Z,2.90
2022-10-17T22:46:42.590Z,2.37
2022-10-17T22:49:10.983Z,3.00
2022-10-17T22:51:40.665Z,3.07
2022-10-17T22:54:08.899Z,2.87
2022-10-17T22:56:37.146Z,2.77
2022-10-17T22:59:05.464Z,2.90
2022-10-17T23:01:33.877Z,2.43
2022-10-17T23:04:02.251Z,2.80
2022-10-17T23:06:30.561Z,2.90
2022-10-17T23:09:00.169Z,2.60
2022-10-17T23:11:28.466Z,2.40
2022-10-17T23:13:56.762Z,2.73
2022-10-17T23:16:25.039Z,2.87
2022-10-17T23:18:53.366Z,2.40
2022-10-17T23:21:21.537Z,3.00
2022-10-17T23:23:49.784Z,2.30
2022-10-17T23:26:19.428Z,2.00
2022-10-17T23:28:47.818Z,2.90
2022-10-17T23:31:18.870Z,2.83
2022-10-17T23:33:48.743Z,2.50
2022-10-17T23:36:19.955Z,2.80
2022-10-17T23:38:50.187Z,2.33
2022-10-17T23:41:20.652Z,3.17
2022-10-17T23:43:48.957Z,2.20
2022-10-17T23:46:17.189Z,2.83
2022-10-17T23:48:45.472Z,2.37
2022-10-17T23:51:14.019Z,2.57
2022-10-17T23:53:42.479Z,2.53
2022-10-17T23:56:11.671Z,2.80
2022-10-17T23:58:41.622Z,2.83
